createdAt,value
2023-03-10T00:00:39.301Z,96161.44
2023-03-10T00:03:06.052Z,96171.50
2023-03-10T00:05:32.825Z,96163.13
2023-03-10T00:07:59.558Z,96165.88
2023-03-10T00:10:33.908Z,96165.16
2023-03-10T00:13:00.445Z,96144.41
2023-03-10T00:15:27.113Z,96134.78
2023-03-10T00:17:57.511Z,96137.94
2023-03-10T00:20:24.270Z,96133.75
2023-03-10T00:22:50.820Z,96119.16
2023-03-10T00:25:17.815Z,96115.41
2023-03-10T00:27:44.305Z,96120.00
2023-03-10T00:30:11.462Z,96120.78
2023-03-10T00:35:21.052Z,96128.97
2023-03-10T00:37:47.864Z,96133.25
2023-03-10T00:40:16.816Z,96124.91
2023-03-10T00:42:44.749Z,96128.50
2023-03-10T00:45:11.424Z,96118.69
2023-03-10T00:47:38.110Z,96123.75
2023-03-10T00:50:05.275Z,96123.09
2023-03-10T00:52:33.261Z,96123.16
2023-03-10T00:54:59.916Z,96129.34
2023-03-10T00:57:26.788Z,96123.16
2023-03-10T00:59:53.360Z,96125.03
2023-03-10T01:02:20.359Z,96122.41
2023-03-10T01:04:48.341Z,96118.22
2023-03-10T01:07:14.866Z,96116.66
2023-03-10T01:09:45.081Z,96114.00
2023-03-10T01:12:14.430Z,96116.34
2023-03-10T01:14:40.975Z,96116.72
2023-03-10T01:17:07.648Z,96116.34
2023-03-10T01:19:34.230Z,96110.94
2023-03-10T01:22:01.103Z,96110.59
2023-03-10T01:24:29.508Z,96109.88
2023-03-10T01:26:56.099Z,96098.75
2023-03-10T01:29:22.641Z,96099.97
2023-03-10T01:31:51.491Z,96101.91
2023-03-10T01:34:22.342Z,96098.06
2023-03-10T01:36:48.871Z,96085.78
2023-03-10T01:39:15.470Z,96085.38
2023-03-10T01:41:42.245Z,96084.28
2023-03-10T01:44:26.770Z,96077.34
2023-03-10T01:46:56.613Z,96070.03
2023-03-10T01:49:44.953Z,96062.41
2023-03-10T01:52:18.317Z,96068.94
2023-03-10T01:54:50.232Z,96055.09
2023-03-10T01:57:21.857Z,96062.06
2023-03-10T01:59:49.702Z,96062.75
2023-03-10T02:02:17.981Z,96068.53
2023-03-10T02:04:51.368Z,96057.38
2023-03-10T02:07:21.577Z,96055.44
2023-03-10T02:09:50.615Z,96056.19
2023-03-10T02:12:18.444Z,96050.44
2023-03-10T02:14:47.699Z,96054.28
2023-03-10T02:17:17.655Z,96057.31
2023-03-10T02:19:55.710Z,96068.81
2023-03-10T02:22:22.409Z,96058.81
2023-03-10T02:24:57.784Z,96048.44
2023-03-10T02:27:31.281Z,96044.94
2023-03-10T02:30:05.415Z,96045.28
2023-03-10T02:32:35.714Z,96041.03
2023-03-10T02:35:03.197Z,96032.63
2023-03-10T02:37:38.195Z,96023.00
2023-03-10T02:40:25.669Z,96019.91
2023-03-10T02:43:02.955Z,96025.69
2023-03-10T02:45:32.998Z,96022.66
2023-03-10T02:47:59.621Z,96022.31
2023-03-10T02:50:30.379Z,96020.03
2023-03-10T02:53:06.884Z,96015.00
2023-03-10T02:55:35.239Z,96020.03
2023-03-10T02:58:02.659Z,96018.88
2023-03-10T03:00:30.613Z,96006.56
2023-03-10T03:02:59.600Z,96007.72
2023-03-10T03:05:26.171Z,96001.97
2023-03-10T03:07:52.722Z,95994.28
2023-03-10T03:10:20.058Z,95994.34
2023-03-10T03:15:28.931Z,95979.00
2023-03-10T03:17:55.508Z,95977.81
2023-03-10T03:20:22.063Z,95972.41
2023-03-10T03:22:50.366Z,95966.63
2023-03-10T03:25:19.030Z,95972.38
2023-03-10T03:27:46.510Z,95971.59
2023-03-10T03:30:22.252Z,95957.34
2023-03-10T03:32:49.366Z,95951.19
2023-03-10T03:35:19.785Z,95951.97
2023-03-10T03:37:48.340Z,95957.41
2023-03-10T03:40:15.493Z,95948.94
2023-03-10T03:42:47.559Z,95938.91
2023-03-10T03:45:19.745Z,95932.75
2023-03-10T03:47:47.062Z,95926.59
2023-03-10T03:50:15.188Z,95923.16
2023-03-10T03:52:49.920Z,95918.94
2023-03-10T03:55:18.116Z,95918.94
2023-03-10T03:57:47.471Z,95914.31
2023-03-10T04:00:24.855Z,95906.63
2023-03-10T04:02:53.178Z,95901.22
2023-03-10T04:05:19.858Z,95890.41
2023-03-10T04:07:50.463Z,95894.25
2023-03-10T04:10:19.962Z,95889.19
2023-03-10T04:12:47.084Z,95883.78
2023-03-10T04:15:18.088Z,95869.13
2023-03-10T04:17:44.629Z,95872.53
2023-03-10T04:20:14.269Z,95868.63
2023-03-10T04:22:43.498Z,95874.75
2023-03-10T04:25:11.174Z,95869.34
2023-03-10T04:27:37.776Z,95877.41
2023-03-10T04:30:05.220Z,95857.00
2023-03-10T04:32:32.512Z,95849.31
2023-03-10T04:34:59.116Z,95850.81
2023-03-10T04:37:27.442Z,95853.50
2023-03-10T04:39:57.447Z,95848.44
2023-03-10T04:42:24.198Z,95846.88
2023-03-10T04:44:52.396Z,95844.16
2023-03-10T04:47:18.922Z,95834.53
2023-03-10T04:49:45.795Z,95825.66
2023-03-10T04:52:19.091Z,95824.09
2023-03-10T04:54:45.550Z,95814.88
2023-03-10T04:57:12.154Z,95824.53
2023-03-10T04:59:38.781Z,95814.94
2023-03-10T05:02:11.041Z,95811.53
2023-03-10T05:04:39.550Z,95798.09
2023-03-10T05:07:06.273Z,95789.28
2023-03-10T05:12:15.873Z,95788.50
2023-03-10T05:14:45.908Z,95780.41
2023-03-10T05:17:12.935Z,95776.94
2023-03-10T05:19:39.778Z,95776.13
2023-03-10T05:22:06.839Z,95777.66
2023-03-10T05:24:33.944Z,95778.41
2023-03-10T05:27:04.338Z,95779.16
2023-03-10T05:29:31.213Z,95777.66
2023-03-10T05:32:06.245Z,95768.44
2023-03-10T05:34:33.013Z,95765.75
2023-03-10T05:36:59.504Z,95772.72
2023-03-10T05:39:27.773Z,95783.50
2023-03-10T05:41:54.299Z,95779.63
2023-03-10T05:44:22.792Z,95777.34
2023-03-10T05:46:49.591Z,95781.13
2023-03-10T05:49:16.203Z,95792.63
2023-03-10T05:51:42.678Z,95808.22
2023-03-10T05:54:09.742Z,95840.81
2023-03-10T05:56:36.516Z,95810.09
2023-03-10T05:59:03.784Z,95818.63
2023-03-10T06:01:31.022Z,95805.44
2023-03-10T06:03:57.643Z,95786.38
2023-03-10T06:06:24.418Z,95764.53
2023-03-10T06:08:57.386Z,95790.31
2023-03-10T06:11:24.074Z,95811.47
2023-03-10T06:13:50.769Z,95798.47
2023-03-10T06:16:19.396Z,95773.97
2023-03-10T06:18:46.180Z,95799.06
2023-03-10T06:21:14.711Z,95816.41
2023-03-10T06:23:43.527Z,95812.66
2023-03-10T06:26:16.454Z,95798.88
2023-03-10T06:28:45.729Z,95802.75
2023-03-10T06:31:18.938Z,95805.13
2023-03-10T06:33:45.765Z,95813.97
2023-03-10T06:36:14.209Z,95831.25
2023-03-10T06:38:41.422Z,95828.19
2023-03-10T06:41:08.577Z,95849.69
2023-03-10T06:43:38.015Z,95843.50
2023-03-10T06:46:07.637Z,95838.47
2023-03-10T06:48:36.505Z,95832.75
2023-03-10T06:51:10.423Z,95846.25
2023-03-10T06:53:37.192Z,95849.34
2023-03-10T06:56:07.838Z,95854.31
2023-03-10T06:58:40.028Z,95850.88
2023-03-10T07:01:08.086Z,95848.19
2023-03-10T07:03:36.311Z,95856.25
2023-03-10T07:06:04.928Z,95862.44
2023-03-10T07:08:31.553Z,95879.34
2023-03-10T07:10:58.113Z,95890.50
2023-03-10T07:13:24.983Z,95895.53
2023-03-10T07:15:52.107Z,95895.22
2023-03-10T07:21:03.311Z,95897.22
2023-03-10T07:23:29.844Z,95891.53
2023-03-10T07:25:57.625Z,95883.16
2023-03-10T07:28:27.216Z,95888.91
2023-03-10T07:30:56.623Z,95880.50
2023-03-10T07:33:23.300Z,95881.66
2023-03-10T07:35:50.006Z,95900.44
2023-03-10T07:38:16.740Z,95913.47
2023-03-10T07:40:43.244Z,95925.72
2023-03-10T07:43:11.790Z,95928.81
2023-03-10T07:45:39.005Z,95938.38
2023-03-10T07:48:09.728Z,95948.34
2023-03-10T07:50:49.063Z,95948.72
2023-03-10T07:53:15.599Z,95954.44
2023-03-10T07:55:42.140Z,95958.66
2023-03-10T07:58:10.611Z,95957.50
2023-03-10T08:00:37.112Z,95964.75
2023-03-10T08:03:03.938Z,95962.78
2023-03-10T08:05:34.371Z,95959.28
2023-03-10T08:08:00.861Z,95968.44
2023-03-10T08:10:27.565Z,95971.47
2023-03-10T08:12:54.566Z,95969.53
2023-03-10T08:15:25.114Z,95967.97
2023-03-10T08:17:51.925Z,95968.69
2023-03-10T08:20:20.380Z,95962.09
2023-03-10T08:22:46.926Z,95975.03
2023-03-10T08:25:13.675Z,95968.44
2023-03-10T08:27:52.321Z,95964.16
2023-03-10T08:30:19.648Z,95968.00
2023-03-10T08:32:46.196Z,95968.72
2023-03-10T08:35:13.012Z,95967.16
2023-03-10T08:37:39.468Z,95969.81
2023-03-10T08:40:08.289Z,95963.28
2023-03-10T08:42:42.825Z,95973.22
2023-03-10T08:45:09.372Z,95965.91
2023-03-10T08:47:36.624Z,95968.94
2023-03-10T08:50:06.496Z,95964.69
2023-03-10T08:52:33.545Z,95982.72
2023-03-10T08:55:03.705Z,95966.59
2023-03-10T08:57:32.183Z,95969.59
2023-03-10T08:59:59.510Z,95967.31
2023-03-10T09:02:26.746Z,95959.25
2023-03-10T09:05:03.744Z,95964.59
2023-03-10T09:07:31.267Z,95951.88
2023-03-10T09:09:57.797Z,95959.50
2023-03-10T09:12:24.544Z,95962.53
2023-03-10T09:14:51.064Z,95966.34
2023-03-10T09:17:17.919Z,95971.72
2023-03-10T09:19:44.568Z,95961.75
2023-03-10T09:22:11.269Z,95959.06
2023-03-10T09:24:37.758Z,95960.94
2023-03-10T09:27:04.464Z,95976.28
2023-03-10T09:29:42.573Z,95959.72
2023-03-10T09:32:11.979Z,95963.56
2023-03-10T09:34:41.051Z,95968.88
2023-03-10T09:37:08.659Z,95956.97
2023-03-10T09:39:35.386Z,95957.34
2023-03-10T09:42:29.203Z,95969.22
2023-03-10T09:45:37.305Z,95964.84
2023-03-10T09:48:41.752Z,95981.31
2023-03-10T09:51:22.441Z,95976.28
2023-03-10T09:53:53.901Z,95982.00
2023-03-10T09:56:29.745Z,95973.53
2023-03-10T09:59:12.086Z,95985.72
2023-03-10T10:01:44.322Z,95983.00
2023-03-10T10:04:30.349Z,95995.66
2023-03-10T10:06:58.250Z,95982.59
2023-03-10T10:09:42.347Z,95993.72
2023-03-10T10:12:18.874Z,95995.31
2023-03-10T10:14:56.736Z,96000.31
2023-03-10T10:18:08.360Z,96000.31
2023-03-10T10:20:40.309Z,95995.72
2023-03-10T10:23:22.261Z,96001.09
2023-03-10T10:25:50.391Z,95999.16
2023-03-10T10:28:35.568Z,96016.09
2023-03-10T10:31:33.434Z,96004.88
2023-03-10T10:34:04.457Z,95999.47
2023-03-10T10:36:32.160Z,96000.94
2023-03-10T10:39:00.203Z,96012.50
2023-03-10T10:41:35.735Z,96005.94
2023-03-10T10:44:14.405Z,96015.53
2023-03-10T10:46:55.928Z,96024.72
2023-03-10T10:49:24.892Z,96025.44
2023-03-10T10:52:03.156Z,96018.84
2023-03-10T10:54:39.097Z,96033.50
2023-03-10T10:57:20.581Z,96025.81
2023-03-10T10:59:47.564Z,96026.53
2023-03-10T11:02:32.043Z,96028.75
2023-03-10T11:05:18.027Z,96036.03
2023-03-10T11:07:47.104Z,96048.31
2023-03-10T11:10:16.687Z,96048.66
2023-03-10T11:13:03.908Z,96044.06
2023-03-10T11:15:36.788Z,96039.72
2023-03-10T11:18:15.687Z,96064.81
2023-03-10T11:20:56.407Z,96055.28
2023-03-10T11:23:42.072Z,96046.47
2023-03-10T11:26:47.578Z,96066.88
2023-03-10T11:29:45.772Z,96072.28
2023-03-10T11:32:23.871Z,96090.75
2023-03-10T11:34:55.768Z,96073.88
2023-03-10T11:37:39.441Z,96070.09
2023-03-10T11:40:27.548Z,96093.22
2023-03-10T11:42:56.993Z,96084.72
2023-03-10T11:45:54.519Z,96084.81
2023-03-10T11:48:56.893Z,96072.59
2023-03-10T11:51:46.233Z,96087.19
2023-03-10T11:54:16.967Z,96087.16
2023-03-10T11:56:44.156Z,96090.91
2023-03-10T11:59:33.104Z,96091.56
2023-03-10T12:02:04.717Z,96112.66
2023-03-10T12:04:55.338Z,96095.31
2023-03-10T12:07:27.133Z,96099.06
2023-03-10T12:10:01.146Z,96108.66
2023-03-10T12:12:36.929Z,96110.59
2023-03-10T12:15:06.194Z,96100.59
2023-03-10T12:17:32.738Z,96109.81
2023-03-10T12:20:13.000Z,96090.13
2023-03-10T12:22:47.375Z,96098.13
2023-03-10T12:25:37.190Z,96113.00
2023-03-10T12:28:16.265Z,96100.91
2023-03-10T12:30:52.778Z,96114.72
2023-03-10T12:33:46.385Z,96110.72
2023-03-10T12:36:27.886Z,96087.81
2023-03-10T12:38:59.008Z,96089.13
2023-03-10T12:41:30.767Z,96091.13
2023-03-10T12:44:01.513Z,96105.22
2023-03-10T12:46:47.459Z,96101.91
2023-03-10T12:49:17.582Z,96109.25
2023-03-10T12:51:53.376Z,96117.94
2023-03-10T12:54:34.300Z,96131.00
2023-03-10T12:57:19.750Z,96148.41
2023-03-10T12:59:59.237Z,96141.84
2023-03-10T13:02:49.330Z,96147.00
2023-03-10T13:05:20.873Z,96167.03
2023-03-10T13:07:56.438Z,96145.50
2023-03-10T13:10:25.697Z,96155.94
2023-03-10T13:13:01.521Z,96155.53
2023-03-10T13:15:29.696Z,96157.25
2023-03-10T13:18:19.972Z,96171.19
2023-03-10T13:20:48.372Z,96158.88
2023-03-10T13:23:27.574Z,96188.94
2023-03-10T13:26:03.816Z,96189.47
2023-03-10T13:28:34.827Z,96170.72
2023-03-10T13:31:32.237Z,96197.38
2023-03-10T13:34:15.254Z,96190.81
2023-03-10T13:36:41.793Z,96190.88
2023-03-10T13:39:17.476Z,96202.47
2023-03-10T13:41:46.830Z,96207.91
2023-03-10T13:44:21.675Z,96212.16
2023-03-10T13:46:54.004Z,96210.25
2023-03-10T13:49:27.178Z,96216.47
2023-03-10T13:52:07.078Z,96228.44
2023-03-10T13:54:37.388Z,96236.19
2023-03-10T13:57:23.933Z,96244.00
2023-03-10T13:59:51.409Z,96260.59
2023-03-10T14:02:26.909Z,96271.41
2023-03-10T14:04:54.341Z,96277.56
2023-03-10T14:07:33.107Z,96285.97
2023-03-10T14:10:07.497Z,96288.97
2023-03-10T14:12:40.092Z,96313.22
2023-03-10T14:15:23.419Z,96324.72
2023-03-10T14:17:52.804Z,96298.94
2023-03-10T14:20:31.401Z,96313.56
2023-03-10T14:23:22.452Z,96326.63
2023-03-10T14:25:52.141Z,96341.59
2023-03-10T14:28:30.712Z,96343.13
2023-03-10T14:31:04.788Z,96341.19
2023-03-10T14:33:33.813Z,96327.66
2023-03-10T14:36:00.385Z,96325.63
2023-03-10T14:38:28.648Z,96336.78
2023-03-10T14:40:55.598Z,96331.38
2023-03-10T14:43:26.150Z,96332.56
2023-03-10T14:45:55.614Z,96333.31
2023-03-10T14:48:28.369Z,96324.47
2023-03-10T14:50:56.922Z,96327.19
2023-03-10T14:53:26.353Z,96347.63
2023-03-10T14:55:56.108Z,96347.28
2023-03-10T14:58:34.410Z,96355.00
2023-03-10T15:01:05.156Z,96350.91
2023-03-10T15:03:31.817Z,96357.13
2023-03-10T15:05:58.504Z,96364.50
2023-03-10T15:08:25.509Z,96373.75
2023-03-10T15:10:52.985Z,96378.72
2023-03-10T15:13:26.929Z,96372.94
2023-03-10T15:15:53.647Z,96392.91
2023-03-10T15:18:23.634Z,96386.81
2023-03-10T15:20:50.582Z,96387.63
2023-03-10T15:23:19.955Z,96405.31
2023-03-10T15:25:46.897Z,96378.34
2023-03-10T15:28:14.117Z,96377.53
2023-03-10T15:30:42.965Z,96362.16
2023-03-10T15:33:10.727Z,96357.94
2023-03-10T15:35:38.854Z,96354.03
2023-03-10T15:38:05.927Z,96340.56
2023-03-10T15:40:33.571Z,96354.78
2023-03-10T15:43:02.622Z,96359.38
2023-03-10T15:45:31.594Z,96373.59
2023-03-10T15:47:58.799Z,96389.41
2023-03-10T15:50:25.777Z,96392.88
2023-03-10T15:52:55.322Z,96372.94
2023-03-10T15:55:24.679Z,96378.72
2023-03-10T15:57:53.556Z,96393.34
2023-03-10T16:00:22.180Z,96408.41
2023-03-10T16:02:49.687Z,96420.72
2023-03-10T16:05:19.476Z,96404.53
2023-03-10T16:07:46.590Z,96409.13
2023-03-10T16:10:16.606Z,96405.22
2023-03-10T16:12:44.920Z,96431.41
2023-03-10T16:15:16.959Z,96421.84
2023-03-10T16:17:44.595Z,96433.81
2023-03-10T16:20:12.764Z,96421.53
2023-03-10T16:22:41.843Z,96443.09
2023-03-10T16:25:12.249Z,96426.97
2023-03-10T16:27:44.928Z,96428.16
2023-03-10T16:30:13.462Z,96433.16
2023-03-10T16:32:39.976Z,96440.47
2023-03-10T16:35:09.573Z,96443.94
2023-03-10T16:37:36.007Z,96453.94
2023-03-10T16:40:04.404Z,96463.09
2023-03-10T16:42:42.638Z,96456.16
2023-03-10T16:45:09.407Z,96446.91
2023-03-10T16:47:35.869Z,96449.59
2023-03-10T16:50:04.581Z,96454.56
2023-03-10T16:52:34.792Z,96446.47
2023-03-10T16:55:05.070Z,96451.88
2023-03-10T16:57:33.484Z,96471.88
2023-03-10T17:00:00.305Z,96442.63
2023-03-10T17:02:26.800Z,96469.94
2023-03-10T17:04:54.243Z,96443.75
2023-03-10T17:07:20.746Z,96451.84
2023-03-10T17:09:49.490Z,96462.97
2023-03-10T17:12:18.577Z,96459.16
2023-03-10T17:14:45.041Z,96472.22
2023-03-10T17:17:11.548Z,96478.00
2023-03-10T17:19:38.153Z,96474.94
2023-03-10T17:22:10.840Z,96506.50
2023-03-10T17:24:37.322Z,96486.13
2023-03-10T17:27:04.223Z,96493.03
2023-03-10T17:29:31.314Z,96511.13
2023-03-10T17:31:57.854Z,96510.38
2023-03-10T17:34:31.988Z,96521.50
2023-03-10T17:36:58.584Z,96529.22
2023-03-10T17:39:27.577Z,96527.72
2023-03-10T17:41:57.331Z,96517.31
2023-03-10T17:44:23.997Z,96514.63
2023-03-10T17:46:52.904Z,96529.25
2023-03-10T17:49:19.551Z,96538.09
2023-03-10T17:51:47.047Z,96535.78
2023-03-10T17:54:18.092Z,96555.44
2023-03-10T17:56:46.512Z,96547.34
2023-03-10T17:59:14.325Z,96560.06
2023-03-10T18:01:43.695Z,96556.59
2023-03-10T18:04:12.478Z,96557.00
2023-03-10T18:06:39.334Z,96560.44
2023-03-10T18:09:08.328Z,96548.53
2023-03-10T18:11:41.554Z,96566.25
2023-03-10T18:14:08.084Z,96548.94
2023-03-10T18:16:38.766Z,96558.56
2023-03-10T18:19:10.983Z,96576.28
2023-03-10T18:21:38.210Z,96602.78
2023-03-10T18:24:05.010Z,96587.00
2023-03-10T18:29:26.355Z,96579.94
2023-03-10T18:31:52.837Z,96613.38
2023-03-10T18:34:20.168Z,96623.78
2023-03-10T18:36:46.859Z,96619.59
2023-03-10T18:39:13.489Z,96621.13
2023-03-10T18:41:41.015Z,96616.16
2023-03-10T18:46:59.647Z,96618.84
2023-03-10T18:49:26.250Z,96631.50
2023-03-10T18:51:52.724Z,96619.97
2023-03-10T18:54:21.539Z,96628.84
2023-03-10T18:56:48.006Z,96635.38
2023-03-10T18:59:18.952Z,96648.03
2023-03-10T19:01:47.264Z,96646.03
2023-03-10T19:04:13.763Z,96653.31
2023-03-10T19:06:40.346Z,96651.34
2023-03-10T19:09:08.602Z,96652.88
2023-03-10T19:11:37.905Z,96657.47
2023-03-10T19:14:05.876Z,96682.03
2023-03-10T19:16:35.612Z,96677.81
2023-03-10T19:19:02.256Z,96667.41
2023-03-10T19:21:28.871Z,96674.72
2023-03-10T19:24:08.997Z,96685.84
2023-03-10T19:26:36.320Z,96699.22
2023-03-10T19:29:06.836Z,96707.25
2023-03-10T19:31:35.162Z,96736.00
2023-03-10T19:34:01.796Z,96753.44
2023-03-10T19:36:30.340Z,96748.94
2023-03-10T19:38:57.290Z,96755.09
2023-03-10T19:41:23.847Z,96768.22
2023-03-10T19:43:51.230Z,96757.25
2023-03-10T19:46:18.488Z,96772.50
2023-03-10T19:48:48.826Z,96798.47
2023-03-10T19:51:23.335Z,96787.28
2023-03-10T19:53:53.347Z,96799.13
2023-03-10T19:56:20.395Z,96796.09
2023-03-10T19:58:50.428Z,96789.25
2023-03-10T20:01:20.066Z,96791.63
2023-03-10T20:03:49.886Z,96795.44
2023-03-10T20:06:21.095Z,96787.03
2023-03-10T20:08:47.637Z,96784.41
2023-03-10T20:11:14.900Z,96788.22
2023-03-10T20:13:43.209Z,96798.16
2023-03-10T20:16:12.806Z,96789.69
2023-03-10T20:18:46.693Z,96797.72
2023-03-10T20:21:13.210Z,96788.88
2023-03-10T20:23:40.042Z,96799.22
2023-03-10T20:26:10.331Z,96822.22
2023-03-10T20:28:37.472Z,96822.97
2023-03-10T20:31:06.041Z,96834.44
2023-03-10T20:33:32.770Z,96842.13
2023-03-10T20:35:59.255Z,96852.44
2023-03-10T20:38:25.783Z,96846.66
2023-03-10T20:40:52.372Z,96838.63
2023-03-10T20:43:21.016Z,96849.34
2023-03-10T20:45:52.058Z,96861.22
2023-03-10T20:48:18.631Z,96858.88
2023-03-10T20:50:45.103Z,96851.19
2023-03-10T20:53:11.754Z,96836.66
2023-03-10T20:55:45.660Z,96824.38
2023-03-10T20:58:12.132Z,96835.09
2023-03-10T21:00:38.715Z,96847.38
2023-03-10T21:03:05.372Z,96836.63
2023-03-10T21:05:31.994Z,96852.28
2023-03-10T21:07:58.600Z,96862.22
2023-03-10T21:10:27.964Z,96867.59
2023-03-10T21:12:54.481Z,96860.66
2023-03-10T21:15:21.125Z,96864.53
2023-03-10T21:17:48.077Z,96870.25
2023-03-10T21:20:18.346Z,96879.44
2023-03-10T21:22:44.934Z,96881.34
2023-03-10T21:25:17.297Z,96898.53
2023-03-10T21:27:47.552Z,96885.91
2023-03-10T21:30:14.622Z,96894.31
2023-03-10T21:32:43.386Z,96898.16
2023-03-10T21:35:13.712Z,96902.34
2023-03-10T21:37:42.448Z,96910.75
2023-03-10T21:40:16.611Z,96895.41
2023-03-10T21:42:43.145Z,96896.94
2023-03-10T21:45:14.021Z,96905.34
2023-03-10T21:47:40.803Z,96929.81
2023-03-10T21:50:08.650Z,96934.38
2023-03-10T21:52:35.156Z,96925.94
2023-03-10T21:55:03.482Z,96923.63
2023-03-10T21:57:31.980Z,96934.34
2023-03-10T21:59:58.484Z,96934.34
2023-03-10T22:02:30.526Z,96938.16
2023-03-10T22:04:57.584Z,96931.22
2023-03-10T22:07:24.192Z,96925.88
2023-03-10T22:09:52.560Z,96924.31
2023-03-10T22:12:19.080Z,96926.22
2023-03-10T22:14:45.727Z,96918.56
2023-03-10T22:17:24.005Z,96939.16
2023-03-10T22:19:54.880Z,96915.75
2023-03-10T22:22:22.612Z,96915.31
2023-03-10T22:24:51.865Z,96927.19
2023-03-10T22:27:18.349Z,96938.25
2023-03-10T22:29:45.996Z,96930.88
2023-03-10T22:32:14.500Z,96934.59
2023-03-10T22:34:41.917Z,96921.97
2023-03-10T22:37:10.258Z,96914.66
2023-03-10T22:39:40.651Z,96930.28
2023-03-10T22:42:10.871Z,96916.91
2023-03-10T22:44:37.755Z,96918.47
2023-03-10T22:47:05.506Z,96919.59
2023-03-10T22:49:32.151Z,96935.66
2023-03-10T22:51:58.952Z,96944.84
2023-03-10T22:54:28.008Z,96904.22
2023-03-10T22:56:56.804Z,96912.97
2023-03-10T22:59:23.287Z,96906.78
2023-03-10T23:01:50.085Z,96897.91
2023-03-10T23:04:16.590Z,96899.75
2023-03-10T23:06:46.873Z,96893.19
2023-03-10T23:09:15.215Z,96911.16
2023-03-10T23:11:41.869Z,96920.31
2023-03-10T23:14:08.315Z,96909.19
2023-03-10T23:16:36.730Z,96909.91
2023-03-10T23:19:08.472Z,96907.22
2023-03-10T23:21:35.996Z,96900.31
2023-03-10T23:24:02.873Z,96887.66
2023-03-10T23:26:30.173Z,96884.53
2023-03-10T23:28:57.138Z,96903.63
2023-03-10T23:31:30.220Z,96906.66
2023-03-10T23:33:56.814Z,96898.22
2023-03-10T23:36:23.353Z,96918.06
2023-03-10T23:38:50.623Z,96920.31
2023-03-10T23:41:18.433Z,96902.28
2023-03-10T23:43:45.121Z,96903.75
2023-03-10T23:46:13.432Z,96912.94
2023-03-10T23:48:40.122Z,96918.63
2023-03-10T23:51:13.013Z,96920.47
2023-03-10T23:53:44.313Z,96941.88
2023-03-10T23:56:11.368Z,96926.16
2023-03-10T23:58:38.171Z,96931.88
